Time;durP1;ratioP1;P1;durP2;ratioP2;P2;SDS_P1;SDS_P2;PMS_P1;PMS_P2;Temp;Humidity;BMP_temperature;BMP_pressure;BME280_temperature;BME280_humidity;BME280_pressure;Samples;Min_cycle;Max_cycle;Signal;HPM_P1;HPM_P2
2023/08/27 00:00:35;;;;;;;16.60;11.50;;;;;;;24.58;58.56;100092.88;106261;1254;60495;-87
2023/08/27 00:03:03;;;;;;;14.90;11.20;;;;;;;24.54;58.68;100097.29;106363;1254;60374;-88
2023/08/27 00:05:31;;;;;;;14.20;10.50;;;;;;;24.54;58.66;100097.85;106590;1256;64912;-87
2023/08/27 00:07:58;;;;;;;18.70;11.00;;;;;;;24.55;58.88;100094.23;106205;1254;61507;-87
2023/08/27 00:10:25;;;;;;;13.70;10.40;;;;;;;24.54;58.99;100090.08;107170;1255;63640;-88
2023/08/27 00:12:53;;;;;;;14.80;11.50;;;;;;;24.51;59.01;100089.56;106352;1254;60464;-87
2023/08/27 00:15:20;;;;;;;15.60;11.80;;;;;;;24.48;59.06;100088.56;106414;1255;60098;-87
2023/08/27 00:17:48;;;;;;;15.40;10.80;;;;;;;24.46;59.03;100082.37;107606;1254;63919;-87
2023/08/27 00:20:16;;;;;;;14.70;11.70;;;;;;;24.43;58.95;100078.14;109313;1254;61086;-86
2023/08/27 00:22:43;;;;;;;14.10;12.00;;;;;;;24.38;59.12;100077.83;106415;1254;62420;-87
2023/08/27 00:25:11;;;;;;;15.40;12.10;;;;;;;24.37;59.27;100078.63;106320;1253;60545;-86
2023/08/27 00:27:38;;;;;;;16.20;11.60;;;;;;;24.37;59.58;100078.95;106242;1254;60535;-87
2023/08/27 00:30:06;;;;;;;14.60;12.00;;;;;;;24.36;59.81;100078.75;106930;1254;64987;-87
2023/08/27 00:32:34;;;;;;;13.00;11.00;;;;;;;24.31;60.00;100079.12;109168;1254;60169;-85
2023/08/27 00:35:03;;;;;;;14.20;11.80;;;;;;;24.28;60.24;100073.82;109498;1255;62550;-85
2023/08/27 00:37:31;;;;;;;15.30;12.70;;;;;;;24.26;60.33;100071.58;109562;1254;59485;-85
2023/08/27 00:39:58;;;;;;;12.80;11.30;;;;;;;24.22;60.11;100079.91;109509;1253;57820;-85
2023/08/27 00:42:26;;;;;;;17.40;11.80;;;;;;;24.17;60.03;100086.20;109476;1253;63720;-86
2023/08/27 00:47:08;;;;;;;17.30;11.40;;;;;;;24.10;59.66;100096.55;102338;1293;601070;-68
2023/08/27 00:49:37;;;;;;;16.60;11.50;;;;;;;24.09;59.90;100100.02;104661;1266;59421;-62
2023/08/27 00:52:06;;;;;;;17.20;12.80;;;;;;;24.10;59.90;100098.09;104625;1267;59317;-70
2023/08/27 00:54:33;;;;;;;14.40;12.00;;;;;;;24.13;59.65;100106.04;104636;1266;74569;-71
2023/08/27 00:57:03;;;;;;;14.20;11.40;;;;;;;24.14;59.35;100104.30;105089;1268;60279;-60
2023/08/27 00:59:31;;;;;;;17.00;12.20;;;;;;;24.10;59.34;100103.13;104613;1270;63809;-59
2023/08/27 01:01:59;;;;;;;16.50;12.70;;;;;;;24.07;59.39;100106.95;104504;1263;247011;-58
2023/08/27 01:04:26;;;;;;;14.70;12.30;;;;;;;24.02;59.42;100107.61;104656;1264;59404;-58
2023/08/27 01:06:55;;;;;;;15.60;12.30;;;;;;;23.95;59.59;100104.89;104518;1263;62030;-59
2023/08/27 01:09:26;;;;;;;16.90;11.80;;;;;;;23.93;59.81;100098.80;104534;1264;61821;-59
2023/08/27 01:12:13;;;;;;;14.60;11.60;;;;;;;23.92;59.79;100102.30;104646;1267;63849;-58
2023/08/27 01:14:43;;;;;;;15.30;12.00;;;;;;;23.92;59.74;100107.56;104771;1264;59729;-68
2023/08/27 01:17:10;;;;;;;12.30;10.40;;;;;;;23.89;59.83;100109.20;104723;1263;59329;-60
2023/08/27 01:19:37;;;;;;;17.40;13.60;;;;;;;23.85;59.96;100108.31;104600;1263;63196;-59
2023/08/27 01:22:05;;;;;;;15.70;12.60;;;;;;;23.82;60.06;100110.34;104739;1264;61699;-60
2023/08/27 01:24:32;;;;;;;13.80;12.20;;;;;;;23.77;60.20;100109.36;104632;1267;63784;-60
2023/08/27 01:27:16;;;;;;;14.20;12.00;;;;;;;23.73;60.19;100114.14;104772;1263;59752;-59
2023/08/27 01:29:55;;;;;;;19.10;11.90;;;;;;;23.70;60.43;100110.28;104916;1263;59664;-58
2023/08/27 01:33:11;;;;;;;16.30;12.10;;;;;;;23.68;60.49;100105.17;105137;1263;64135;-58
2023/08/27 01:35:39;;;;;;;14.60;12.70;;;;;;;23.64;60.70;100102.72;104718;1267;60290;-59
2023/08/27 01:38:07;;;;;;;16.50;12.30;;;;;;;23.60;60.81;100099.38;104574;1264;63750;-59
2023/08/27 01:40:37;;;;;;;18.90;12.70;;;;;;;23.58;60.72;100095.38;104207;1267;59852;-66
2023/08/27 01:43:05;;;;;;;17.50;12.60;;;;;;;23.55;60.75;100095.61;104456;1264;59592;-71
2023/08/27 01:45:32;;;;;;;14.60;12.00;;;;;;;23.56;60.93;100099.08;104446;1264;64132;-67
2023/08/27 01:48:00;;;;;;;15.10;12.20;;;;;;;23.58;60.93;100099.98;104565;1264;61545;-67
2023/08/27 01:50:28;;;;;;;14.60;11.60;;;;;;;23.58;60.99;100093.16;104436;1271;62538;-73
2023/08/27 01:52:56;;;;;;;14.90;11.70;;;;;;;23.58;61.22;100086.71;104342;1270;59574;-62
2023/08/27 01:55:24;;;;;;;17.00;13.20;;;;;;;23.58;61.48;100093.33;104729;1267;59567;-64
2023/08/27 01:57:52;;;;;;;16.70;13.70;;;;;;;23.56;61.71;100093.21;104362;1267;64383;-66
2023/08/27 02:00:20;;;;;;;17.90;13.60;;;;;;;23.55;61.59;100089.75;104411;1272;60430;-61
2023/08/27 02:02:48;;;;;;;17.60;12.20;;;;;;;23.55;61.47;100088.63;104391;1267;64315;-61
2023/08/27 02:05:16;;;;;;;15.40;12.20;;;;;;;23.58;61.39;100084.93;104951;1269;59711;-62
2023/08/27 02:07:43;;;;;;;18.00;12.90;;;;;;;23.58;61.42;100083.86;105703;1257;59621;-62
2023/08/27 02:10:10;;;;;;;16.60;12.70;;;;;;;23.55;61.46;100086.90;105659;1257;62857;-63
2023/08/27 02:12:40;;;;;;;17.30;12.70;;;;;;;23.52;61.40;100085.38;105931;1257;61512;-66
2023/08/27 02:15:08;;;;;;;15.00;13.10;;;;;;;23.47;61.22;100080.98;105617;1260;63768;-65
2023/08/27 02:17:36;;;;;;;16.00;12.40;;;;;;;23.46;61.32;100078.05;105355;1260;59625;-65
2023/08/27 02:20:06;;;;;;;16.40;11.80;;;;;;;23.48;61.34;100072.89;105883;1257;59779;-65
2023/08/27 02:22:35;;;;;;;17.30;12.80;;;;;;;23.49;61.18;100072.44;106003;1254;62827;-64
2023/08/27 02:28:33;;;;;;;16.30;12.20;;;;;;;23.47;60.76;100064.02;105467;1257;63781;-67
2023/08/27 02:31:05;;;;;;;19.00;13.90;;;;;;;23.44;60.71;100059.86;105634;1260;59748;-65
2023/08/27 02:34:03;;;;;;;13.90;12.30;;;;;;;23.40;60.82;100054.80;105426;1257;59663;-58
2023/08/27 02:37:06;;;;;;;14.40;12.60;;;;;;;23.33;60.80;100059.30;105483;1255;62856;-61
2023/08/27 02:43:34;;;;;;;14.30;12.20;;;;;;;23.27;61.21;100061.11;105263;1262;62579;-59
2023/08/27 02:46:02;;;;;;;16.40;13.00;;;;;;;23.25;61.64;100068.05;105219;1255;59748;-58
2023/08/27 02:48:30;;;;;;;16.30;13.10;;;;;;;23.23;61.73;100068.77;105387;1260;59644;-59
2023/08/27 02:51:25;;;;;;;15.40;12.90;;;;;;;23.23;61.82;100070.91;105027;1257;64192;-60
2023/08/27 02:53:53;;;;;;;16.40;12.80;;;;;;;23.24;62.13;100073.83;105297;1260;60278;-59
2023/08/27 02:56:26;;;;;;;18.50;13.50;;;;;;;23.26;62.29;100078.12;105198;1261;65844;-58
2023/08/27 02:59:04;;;;;;;16.10;12.50;;;;;;;23.27;62.21;100079.94;104443;1271;59851;-59
2023/08/27 03:01:35;;;;;;;15.70;13.40;;;;;;;23.25;62.23;100082.64;104557;1268;61442;-59
2023/08/27 03:04:53;;;;;;;14.30;12.70;;;;;;;23.23;62.14;100085.14;105131;1257;64764;-61
2023/08/27 03:07:21;;;;;;;16.90;13.20;;;;;;;23.18;62.08;100096.77;104774;1268;60137;-59
2023/08/27 03:09:48;;;;;;;16.20;12.50;;;;;;;23.12;61.79;100101.63;104793;1261;63710;-58
2023/08/27 03:12:17;;;;;;;17.00;13.20;;;;;;;23.06;61.31;100098.34;104963;1264;59737;-58
2023/08/27 03:14:47;;;;;;;22.20;14.80;;;;;;;23.02;61.06;100091.73;105074;1263;59654;-58
2023/08/27 03:17:15;;;;;;;17.50;13.10;;;;;;;23.00;60.88;100098.05;104880;1265;64683;-55
2023/08/27 03:19:43;;;;;;;15.50;13.80;;;;;;;22.96;60.69;100102.23;104759;1258;61364;-54
2023/08/27 03:22:13;;;;;;;22.60;15.80;;;;;;;22.91;60.81;100094.83;104950;1259;63724;-53
2023/08/27 03:24:43;;;;;;;16.20;14.40;;;;;;;22.88;61.09;100088.73;104939;1260;59871;-54
2023/08/27 03:27:35;;;;;;;19.90;14.70;;;;;;;22.87;61.32;100083.15;104660;1260;59532;-57
2023/08/27 03:30:20;;;;;;;18.70;14.80;;;;;;;22.91;61.23;100090.23;104814;1261;62977;-54
2023/08/27 03:32:47;;;;;;;16.70;14.00;;;;;;;22.96;61.18;100097.98;104796;1264;61443;-54
2023/08/27 03:35:16;;;;;;;19.50;15.00;;;;;;;22.97;61.27;100104.17;105082;1260;63660;-54
2023/08/27 03:37:43;;;;;;;16.60;14.70;;;;;;;23.08;61.31;100100.58;105102;1260;59806;-51
2023/08/27 03:40:12;;;;;;;17.50;14.40;;;;;;;23.13;61.47;100095.39;105368;1257;59629;-54
2023/08/27 03:42:39;;;;;;;18.00;15.00;;;;;;;23.15;61.48;100090.31;105432;1255;64240;-54
2023/08/27 03:45:08;;;;;;;17.20;13.70;;;;;;;23.16;61.58;100096.87;105209;1257;63628;-53
2023/08/27 03:47:35;;;;;;;17.50;13.30;;;;;;;23.14;61.61;100102.04;105357;1261;62420;-59
2023/08/27 03:50:04;;;;;;;19.40;14.50;;;;;;;23.23;61.65;100109.02;104842;1257;59671;-59
2023/08/27 03:52:35;;;;;;;16.40;12.80;;;;;;;23.33;61.30;100109.10;105228;1255;59659;-59
2023/08/27 03:55:03;;;;;;;17.20;13.10;;;;;;;23.40;61.46;100110.36;104883;1266;64177;-59
2023/08/27 03:57:33;;;;;;;16.20;13.50;;;;;;;23.43;61.66;100115.00;104886;1254;61495;-60
2023/08/27 04:00:01;;;;;;;19.50;13.50;;;;;;;23.45;61.83;100116.69;105172;1254;62604;-60
2023/08/27 04:02:29;;;;;;;16.80;13.50;;;;;;;23.47;61.99;100111.10;105073;1262;59758;-58
2023/08/27 04:05:15;;;;;;;15.90;13.60;;;;;;;23.51;62.04;100105.09;105270;1255;59810;-55
2023/08/27 04:08:17;;;;;;;19.70;14.00;;;;;;;23.58;61.85;100106.20;105125;1262;72803;-56
2023/08/27 04:14:35;;;;;;;16.90;13.70;;;;;;;23.62;62.00;100105.61;105277;1257;62890;-56
2023/08/27 04:17:03;;;;;;;21.30;14.90;;;;;;;23.65;62.08;100111.42;105277;1254;59936;-56
2023/08/27 04:19:55;;;;;;;16.50;13.90;;;;;;;23.69;61.91;100112.67;105338;1258;59554;-59
2023/08/27 04:22:23;;;;;;;19.00;15.00;;;;;;;23.80;61.42;100111.17;104824;1254;62994;-61
2023/08/27 04:24:50;;;;;;;15.20;13.40;;;;;;;23.87;60.76;100113.38;104980;1256;61443;-55
2023/08/27 04:27:18;;;;;;;18.50;14.60;;;;;;;23.92;60.17;100115.32;105308;1254;62444;-60
2023/08/27 04:29:46;;;;;;;19.00;15.40;;;;;;;23.95;60.06;100111.02;105280;1254;62045;-60
2023/08/27 04:32:43;;;;;;;23.00;15.50;;;;;;;23.99;60.02;100110.77;105380;1254;59583;-59
2023/08/27 04:35:14;;;;;;;16.60;14.20;;;;;;;24.04;59.98;100108.99;104729;1260;64129;-58
2023/08/27 04:37:45;;;;;;;18.50;14.50;;;;;;;24.11;59.83;100110.84;104438;1263;61468;-58
2023/08/27 04:40:12;;;;;;;16.60;13.80;;;;;;;24.23;59.80;100110.63;105084;1262;63716;-56
2023/08/27 04:42:41;;;;;;;19.90;14.40;;;;;;;24.37;59.71;100107.83;104897;1263;59945;-58
2023/08/27 04:45:10;;;;;;;16.90;14.00;;;;;;;24.50;59.56;100107.01;104642;1262;59531;-57
2023/08/27 04:48:02;;;;;;;17.30;13.80;;;;;;;24.61;59.43;100111.02;104670;1258;65095;-59
2023/08/27 04:50:37;;;;;;;16.80;13.70;;;;;;;24.72;59.23;100118.00;104449;1261;60446;-57
2023/08/27 04:53:08;;;;;;;18.20;15.00;;;;;;;24.83;58.66;100117.42;104304;1260;63638;-53
2023/08/27 04:55:36;;;;;;;20.40;14.80;;;;;;;24.94;58.07;100117.18;104226;1260;59648;-58
2023/08/27 04:58:04;;;;;;;14.70;13.00;;;;;;;25.03;57.75;100118.36;104807;1260;61134;-72
2023/08/27 05:00:32;;;;;;;17.40;15.10;;;;;;;25.14;57.63;100111.91;105547;1260;64105;-59
2023/08/27 05:03:02;;;;;;;18.70;15.00;;;;;;;25.26;57.40;100110.91;105046;1260;63102;-63
2023/08/27 05:05:56;;;;;;;17.50;13.60;;;;;;;25.36;57.23;100106.19;104822;1267;62465;-64
2023/08/27 05:08:39;;;;;;;16.80;15.00;;;;;;;25.44;57.15;100099.78;105296;1257;60434;-64
2023/08/27 05:11:20;;;;;;;18.40;13.60;;;;;;;25.52;57.13;100099.06;105099;1262;60472;-59
2023/08/27 05:13:48;;;;;;;17.00;14.50;;;;;;;25.56;56.99;100101.12;104887;1262;66882;-59
2023/08/27 05:16:16;;;;;;;16.40;12.80;;;;;;;25.59;56.93;100098.34;105214;1258;60584;-58
2023/08/27 05:18:44;;;;;;;19.50;12.50;;;;;;;25.65;56.78;100103.67;105212;1258;63696;-62
2023/08/27 05:21:13;;;;;;;20.40;13.80;;;;;;;25.70;56.42;100101.76;105288;1259;60608;-61
2023/08/27 05:23:41;;;;;;;15.90;12.60;;;;;;;25.71;56.67;100100.28;105209;1257;60411;-58
2023/08/27 05:26:09;;;;;;;18.50;13.50;;;;;;;25.71;56.82;100097.47;104985;1254;64120;-60
2023/08/27 05:28:36;;;;;;;14.80;12.60;;;;;;;25.69;56.99;100098.02;105087;1257;61961;-59
2023/08/27 05:31:13;;;;;;;18.90;13.70;;;;;;;25.68;56.94;100097.38;105205;1256;62504;-62
2023/08/27 05:33:42;;;;;;;16.10;12.90;;;;;;;25.68;56.92;100097.45;104458;1252;61223;-60
2023/08/27 05:36:09;;;;;;;18.30;13.20;;;;;;;25.73;56.97;100097.42;105418;1256;60545;-59
2023/08/27 05:38:37;;;;;;;14.50;13.00;;;;;;;25.79;57.15;100094.49;105234;1256;63623;-60
2023/08/27 05:41:04;;;;;;;18.50;13.30;;;;;;;25.87;57.11;100096.30;106910;1255;61480;-64
2023/08/27 05:43:32;;;;;;;17.70;13.00;;;;;;;25.95;57.16;100094.66;105960;1256;63888;-67
2023/08/27 05:46:00;;;;;;;16.30;13.20;;;;;;;26.04;56.99;100092.84;105981;1256;61116;-66
2023/08/27 05:48:27;;;;;;;14.00;12.50;;;;;;;26.13;56.71;100096.13;105020;1251;60312;-60
2023/08/27 05:50:59;;;;;;;20.10;13.50;;;;;;;26.22;56.71;100086.90;105001;1254;64913;-62
2023/08/27 05:53:27;;;;;;;14.40;12.30;;;;;;;26.32;56.62;100079.85;105314;1256;63515;-61
2023/08/27 05:55:55;;;;;;;13.30;11.20;;;;;;;26.43;56.54;100075.41;107172;1253;63771;-66
2023/08/27 05:58:23;;;;;;;13.50;12.10;;;;;;;26.56;56.30;100070.84;105258;1251;60456;-59
2023/08/27 06:00:54;;;;;;;13.80;11.40;;;;;;;26.67;55.82;100076.13;105056;1251;60552;-62
2023/08/27 06:03:22;;;;;;;11.80;10.50;;;;;;;26.77;55.75;100079.26;109364;1251;64918;-60
2023/08/27 06:05:53;;;;;;;15.60;12.30;;;;;;;26.88;55.56;100076.90;109309;1255;61355;-59
2023/08/27 06:08:21;;;;;;;13.70;12.30;;;;;;;26.98;55.37;100078.67;107661;1251;63713;-59
2023/08/27 06:10:49;;;;;;;12.80;11.50;;;;;;;27.07;54.94;100081.28;105311;1256;60338;-59
2023/08/27 06:13:18;;;;;;;16.20;12.80;;;;;;;27.14;54.96;100077.27;105464;1251;60485;-59
2023/08/27 06:15:45;;;;;;;13.00;10.70;;;;;;;27.21;54.63;100075.95;105274;1256;64905;-58
2023/08/27 06:18:13;;;;;;;14.70;11.50;;;;;;;27.29;54.33;100075.29;105089;1251;60476;-59
2023/08/27 06:20:42;;;;;;;16.10;11.90;;;;;;;27.38;54.23;100070.46;105020;1256;62764;-59
2023/08/27 06:23:10;;;;;;;14.40;11.00;;;;;;;27.49;54.00;100072.44;105411;1251;60499;-59
2023/08/27 06:25:38;;;;;;;15.40;11.40;;;;;;;27.57;54.03;100074.32;105433;1257;60473;-58
2023/08/27 06:28:07;;;;;;;14.90;10.80;;;;;;;27.67;54.15;100073.58;106745;1256;63628;-60
2023/08/27 06:30:34;;;;;;;19.60;11.00;;;;;;;27.76;53.61;100064.42;105430;1252;61431;-58
2023/08/27 06:33:04;;;;;;;15.60;12.10;;;;;;;27.83;53.34;100060.38;105293;1251;62485;-56
2023/08/27 06:35:32;;;;;;;15.60;12.40;;;;;;;27.89;53.80;100060.11;105129;1252;60434;-58
2023/08/27 06:37:59;;;;;;;12.40;10.40;;;;;;;27.95;54.09;100063.27;105557;1257;60361;-60
2023/08/27 06:40:29;;;;;;;13.70;11.10;;;;;;;28.04;53.25;100062.31;105181;1256;63691;-59
2023/08/27 06:43:22;;;;;;;16.30;12.80;;;;;;;28.14;53.67;100064.26;105131;1252;61378;-58
2023/08/27 06:45:50;;;;;;;15.30;11.80;;;;;;;28.21;53.89;100058.84;105359;1254;62892;-63
2023/08/27 06:48:18;;;;;;;13.60;11.60;;;;;;;28.24;53.70;100057.77;105259;1256;60581;-59
2023/08/27 06:50:58;;;;;;;14.00;11.10;;;;;;;28.27;53.69;100052.08;105420;1257;60356;-59
2023/08/27 06:55:17;;;;;;;;;;;;;;;28.14;53.99;100046.89;102168;1290;600809;-59
2023/08/27 06:57:45;;;;;;;12.90;11.50;;;;;;;28.35;52.82;100048.83;104550;1265;59350;-56
2023/08/27 07:00:13;;;;;;;14.80;11.80;;;;;;;28.39;52.90;100050.83;104316;1267;59228;-56
2023/08/27 07:02:41;;;;;;;17.60;11.70;;;;;;;28.36;52.81;100049.71;104059;1267;72703;-57
2023/08/27 07:05:08;;;;;;;12.70;10.80;;;;;;;28.33;52.73;100046.75;103992;1268;60269;-57
2023/08/27 07:07:37;;;;;;;12.80;11.40;;;;;;;28.38;52.65;100048.54;104178;1267;62435;-57
2023/08/27 07:10:06;;;;;;;14.30;11.20;;;;;;;28.46;52.91;100048.91;105050;1263;236575;-58
2023/08/27 07:12:34;;;;;;;13.20;10.90;;;;;;;28.53;53.14;100051.02;104526;1264;59330;-55
2023/08/27 07:18:40;;;;;;;16.70;11.30;;;;;;;28.62;52.91;100050.23;105689;1254;61356;-58
2023/08/27 07:21:13;;;;;;;14.00;11.70;;;;;;;28.63;52.75;100051.39;105305;1263;62442;-57
2023/08/27 07:23:41;;;;;;;12.80;11.30;;;;;;;28.62;52.51;100052.58;105008;1254;59910;-55
2023/08/27 07:26:08;;;;;;;14.10;11.40;;;;;;;28.63;52.28;100057.56;105057;1259;59650;-55
2023/08/27 07:28:36;;;;;;;13.00;11.70;;;;;;;28.63;52.25;100051.93;104844;1254;64119;-57
2023/08/27 07:31:04;;;;;;;15.00;11.80;;;;;;;28.64;52.13;100051.08;104835;1254;63659;-57
2023/08/27 07:33:33;;;;;;;15.10;12.10;;;;;;;28.65;52.62;100049.41;105731;1256;63777;-57
2023/08/27 07:36:00;;;;;;;12.80;11.20;;;;;;;28.69;52.68;100050.45;105167;1254;59688;-58
2023/08/27 07:38:29;;;;;;;13.10;11.00;;;;;;;28.76;52.57;100051.90;105743;1254;60530;-57
2023/08/27 07:40:56;;;;;;;13.40;11.90;;;;;;;28.88;52.26;100053.44;105049;1259;64171;-57
2023/08/27 07:43:24;;;;;;;14.80;11.30;;;;;;;29.00;52.42;100059.48;104918;1254;61887;-57
2023/08/27 07:45:52;;;;;;;13.70;11.20;;;;;;;29.11;51.88;100067.56;104942;1254;63757;-58
2023/08/27 07:48:20;;;;;;;14.40;11.40;;;;;;;29.19;51.23;100067.96;105200;1259;59759;-58
2023/08/27 07:50:57;;;;;;;15.40;11.40;;;;;;;29.27;51.24;100072.89;105062;1257;59984;-59
2023/08/27 07:53:25;;;;;;;13.10;11.80;;;;;;;29.34;51.53;100072.08;104697;1254;62875;-57
2023/08/27 07:55:53;;;;;;;16.40;12.30;;;;;;;29.37;51.43;100070.70;104927;1255;61805;-56
2023/08/27 07:58:22;;;;;;;14.60;11.30;;;;;;;29.39;51.49;100068.61;105108;1260;62487;-58
2023/08/27 08:00:57;;;;;;;14.10;12.00;;;;;;;29.39;51.13;100069.06;105897;1254;61978;-57
2023/08/27 08:03:25;;;;;;;14.90;10.90;;;;;;;29.41;51.57;100068.64;106524;1254;59317;-57
2023/08/27 08:05:53;;;;;;;14.20;11.40;;;;;;;29.46;51.38;100072.26;105158;1254;62824;-56
2023/08/27 08:08:20;;;;;;;12.60;10.90;;;;;;;29.54;51.11;100070.48;104698;1254;61405;-58
2023/08/27 08:10:48;;;;;;;14.40;11.40;;;;;;;29.60;50.79;100067.03;105132;1251;63911;-58
2023/08/27 08:13:16;;;;;;;13.70;11.50;;;;;;;29.64;50.63;100070.27;105099;1256;59775;-57
2023/08/27 08:15:47;;;;;;;15.10;12.20;;;;;;;29.67;50.35;100069.48;105268;1257;59736;-56
2023/08/27 08:18:14;;;;;;;13.00;11.10;;;;;;;29.70;50.45;100066.73;106293;1251;62989;-55
2023/08/27 08:20:42;;;;;;;13.20;11.10;;;;;;;29.71;50.13;100064.91;105325;1251;61299;-56
2023/08/27 08:23:10;;;;;;;13.50;12.10;;;;;;;29.74;50.07;100063.20;105227;1253;63782;-57
2023/08/27 08:25:59;;;;;;;13.90;11.50;;;;;;;29.76;50.11;100066.31;105180;1251;59633;-57
2023/08/27 08:28:58;;;;;;;14.80;12.20;;;;;;;29.77;50.08;100068.99;105412;1253;59880;-59
2023/08/27 08:32:09;;;;;;;14.40;11.60;;;;;;;29.82;50.00;100065.79;104958;1259;64147;-59
2023/08/27 08:34:39;;;;;;;12.60;11.30;;;;;;;29.89;50.06;100067.85;104908;1251;61411;-57
2023/08/27 08:37:07;;;;;;;17.70;12.60;;;;;;;29.95;50.39;100068.11;104386;1267;63700;-57
2023/08/27 08:39:34;;;;;;;13.50;11.30;;;;;;;30.03;50.35;100064.80;105435;1251;59667;-58
2023/08/27 08:42:06;;;;;;;14.40;11.40;;;;;;;30.15;49.55;100065.18;105405;1254;60221;-58
2023/08/27 08:44:57;;;;;;;12.90;11.50;;;;;;;30.28;48.97;100062.81;105498;1251;64144;-56
2023/08/27 08:47:25;;;;;;;14.40;11.40;;;;;;;30.39;48.79;100059.05;105279;1258;61295;-56
2023/08/27 08:50:18;;;;;;;16.70;11.90;;;;;;;30.48;48.91;100051.23;105532;1251;66545;-57
2023/08/27 08:53:24;;;;;;;12.80;11.50;;;;;;;30.55;48.91;100056.10;105363;1254;59643;-57
2023/08/27 08:55:56;;;;;;;16.40;11.20;;;;;;;30.61;48.64;100054.11;105451;1251;59792;-57
2023/08/27 08:58:27;;;;;;;12.40;11.10;;;;;;;30.65;48.33;100050.89;105526;1256;66183;-58
2023/08/27 09:00:58;;;;;;;12.70;10.90;;;;;;;30.70;48.90;100048.52;105721;1251;61409;-57
2023/08/27 09:03:32;;;;;;;13.10;11.20;;;;;;;30.78;49.09;100046.77;105098;1255;63714;-57
2023/08/27 09:05:59;;;;;;;11.30;10.10;;;;;;;30.85;48.77;100049.61;105010;1254;59581;-57
2023/08/27 09:08:27;;;;;;;12.40;11.10;;;;;;;30.94;48.93;100045.42;105070;1255;59866;-56
2023/08/27 09:10:55;;;;;;;14.20;11.30;;;;;;;31.01;48.51;100042.69;105466;1262;64131;-57
2023/08/27 09:13:23;;;;;;;12.50;10.40;;;;;;;31.05;47.86;100041.52;105193;1254;61351;-57
2023/08/27 09:15:51;;;;;;;14.30;9.90;;;;;;;31.08;46.70;100040.92;105033;1254;66570;-57
2023/08/27 09:18:18;;;;;;;11.40;10.20;;;;;;;31.09;46.49;100038.09;104893;1256;59720;-57
2023/08/27 09:20:46;;;;;;;13.90;10.10;;;;;;;31.14;45.99;100034.36;107553;1259;59657;-57
2023/08/27 09:23:13;;;;;;;10.50;9.30;;;;;;;31.23;46.34;100033.35;105076;1257;64072;-57
2023/08/27 09:26:22;;;;;;;16.00;10.80;;;;;;;31.34;46.43;100031.51;105396;1254;63731;-58
2023/08/27 09:28:56;;;;;;;9.80;7.10;;;;;;;31.46;44.23;100031.26;104824;1260;63778;-57
2023/08/27 09:31:38;;;;;;;10.70;7.30;;;;;;;31.57;41.99;100026.98;104349;1260;59755;-57
2023/08/27 09:34:05;;;;;;;10.50;6.40;;;;;;;31.67;40.20;100023.96;105110;1256;59855;-56
2023/08/27 09:36:35;;;;;;;8.40;6.50;;;;;;;31.73;40.13;100024.98;105309;1254;64283;-56
2023/08/27 09:39:10;;;;;;;8.90;6.20;;;;;;;31.81;38.44;100026.77;105671;1256;60119;-57
2023/08/27 09:41:39;;;;;;;8.80;6.40;;;;;;;31.90;38.16;100026.70;105557;1254;64238;-56
2023/08/27 09:44:08;;;;;;;8.80;6.40;;;;;;;31.98;38.22;100025.83;105514;1252;59718;-56
2023/08/27 09:46:36;;;;;;;7.60;6.10;;;;;;;32.05;38.17;100021.70;105695;1257;59708;-56
2023/08/27 09:49:05;;;;;;;9.60;6.20;;;;;;;32.12;37.84;100019.64;105478;1257;64204;-56
2023/08/27 09:56:04;;;;;;;11.10;7.90;;;;;;;32.12;38.14;100019.02;104981;1296;601407;-92
2023/08/27 09:58:31;;;;;;;9.10;7.50;;;;;;;32.28;37.89;100019.17;108109;1271;58699;-93
2023/08/27 10:01:03;;;;;;;9.70;7.20;;;;;;;32.35;37.62;100029.16;108075;1268;59493;-93
2023/08/27 10:03:31;;;;;;;9.30;6.70;;;;;;;32.43;37.62;100024.29;108840;1259;63366;-94
2023/08/27 10:06:02;;;;;;;8.90;6.50;;;;;;;32.52;37.46;100018.75;108923;1260;62763;-90
2023/08/27 10:08:31;;;;;;;9.30;7.10;;;;;;;32.63;37.29;100020.92;108060;1260;245546;-95
2023/08/27 10:11:06;;;;;;;7.50;5.90;;;;;;;32.74;37.55;100020.88;108111;1258;58648;-93
2023/08/27 10:13:34;;;;;;;8.40;6.70;;;;;;;32.85;37.43;100023.60;108462;1261;57525;-94
2023/08/27 10:16:01;;;;;;;7.10;6.00;;;;;;;32.92;36.49;100021.66;108763;1260;64235;-92
2023/08/27 10:18:29;;;;;;;8.60;6.30;;;;;;;32.94;36.51;100021.11;108765;1257;60252;-92
2023/08/27 10:20:56;;;;;;;7.40;5.80;;;;;;;32.98;36.54;100032.80;109048;1256;62465;-93
2023/08/27 10:23:24;;;;;;;7.20;5.70;;;;;;;33.03;35.85;100036.27;108729;1259;57511;-92
2023/08/27 10:25:53;;;;;;;9.80;5.50;;;;;;;33.04;35.56;100029.61;108933;1254;58832;-91
2023/08/27 10:28:20;;;;;;;11.90;6.70;;;;;;;33.07;36.03;100025.50;108915;1258;64154;-93
2023/08/27 10:30:48;;;;;;;10.40;5.60;;;;;;;33.10;35.97;100025.16;108679;1252;61406;-93
2023/08/27 10:33:15;;;;;;;10.00;6.40;;;;;;;33.13;36.01;100017.45;108551;1254;62624;-93
2023/08/27 10:35:43;;;;;;;7.60;5.30;;;;;;;33.21;35.60;100024.46;108966;1254;58431;-93
2023/08/27 10:38:10;;;;;;;9.40;5.70;;;;;;;33.28;34.92;100013.73;108992;1254;60468;-92
2023/08/27 10:40:38;;;;;;;9.40;5.30;;;;;;;33.31;34.62;100007.21;109062;1256;64116;-91
2023/08/27 10:43:07;;;;;;;9.00;5.00;;;;;;;33.37;34.86;100005.16;108901;1254;60486;-89
2023/08/27 10:45:38;;;;;;;7.20;5.30;;;;;;;33.42;34.66;99998.52;108979;1257;62475;-92
2023/08/27 10:48:16;;;;;;;7.50;5.60;;;;;;;33.46;34.47;99992.10;109034;1253;57412;-91
2023/08/27 10:51:21;;;;;;;8.20;5.30;;;;;;;33.49;34.27;99997.09;108855;1254;59497;-92
2023/08/27 10:54:30;;;;;;;6.80;5.00;;;;;;;33.49;34.67;99991.59;108860;1257;64120;-93
2023/08/27 10:56:58;;;;;;;8.70;5.10;;;;;;;33.54;34.85;99982.65;108832;1255;61422;-93
2023/08/27 10:59:27;;;;;;;7.60;5.00;;;;;;;33.62;35.05;99985.59;108699;1254;76248;-89
2023/08/27 11:01:56;;;;;;;7.00;4.70;;;;;;;33.74;34.66;99975.95;109153;1254;58454;-91
2023/08/27 11:04:37;;;;;;;6.60;5.00;;;;;;;33.84;34.56;99980.27;109161;1252;57666;-91
2023/08/27 11:07:12;;;;;;;8.70;5.20;;;;;;;33.96;34.30;99976.07;108827;1254;64144;-91
2023/08/27 11:09:56;;;;;;;10.90;5.50;;;;;;;34.03;34.14;99968.17;108698;1254;61880;-92
2023/08/27 11:12:34;;;;;;;6.40;4.50;;;;;;;34.11;34.14;99965.59;108726;1257;66171;-91
2023/08/27 11:15:34;;;;;;;7.60;4.90;;;;;;;34.15;33.86;99957.46;108815;1254;57618;-95
2023/08/27 11:25:20;;;;;;;6.60;5.20;;;;;;;34.32;33.45;99950.69;108531;1254;61517;-92
2023/08/27 11:27:51;;;;;;;7.90;5.00;;;;;;;34.32;33.17;99952.09;108626;1257;62559;-94
2023/08/27 11:30:49;;;;;;;8.20;4.90;;;;;;;34.27;33.11;99952.48;108560;1257;59604;-94
2023/08/27 11:34:06;;;;;;;6.90;4.50;;;;;;;34.23;33.03;99946.38;107705;1257;59608;-94
2023/08/27 11:36:35;;;;;;;5.90;4.00;;;;;;;34.24;32.76;99944.02;108357;1256;62892;-96
2023/08/27 11:39:14;;;;;;;7.70;4.70;;;;;;;34.28;32.58;99942.39;108758;1257;59587;-92
2023/08/27 11:41:44;;;;;;;8.30;4.90;;;;;;;34.34;32.26;99940.23;108613;1258;63801;-93
2023/08/27 11:44:12;;;;;;;10.60;5.10;;;;;;;34.39;32.54;99936.02;107590;1257;59292;-95
2023/08/27 11:46:41;;;;;;;19.50;5.70;;;;;;;34.44;32.76;99933.60;108270;1256;58185;-94
2023/08/27 11:49:10;;;;;;;11.00;4.90;;;;;;;34.47;32.90;99932.95;107577;1254;62900;-90
2023/08/27 11:51:40;;;;;;;7.20;4.70;;;;;;;34.50;33.07;99931.77;107713;1254;61337;-96
2023/08/27 11:54:10;;;;;;;7.30;4.90;;;;;;;34.52;32.93;99932.61;108134;1253;64757;-95
2023/08/27 11:56:37;;;;;;;7.20;4.50;;;;;;;34.49;32.78;99933.10;108369;1253;59683;-93